createdAt,value
2023-03-29T00:00:32.911Z,101452.94
2023-03-29T00:03:02.601Z,101461.38
2023-03-29T00:05:33.941Z,101453.91
2023-03-29T00:08:04.623Z,101448.66
2023-03-29T00:10:33.671Z,101455.38
2023-03-29T00:13:02.565Z,101451.03
2023-03-29T00:15:30.293Z,101451.13
2023-03-29T00:17:58.205Z,101449.00
2023-03-29T00:20:25.702Z,101454.25
2023-03-29T00:22:53.390Z,101406.87
2023-03-29T00:25:20.945Z,101458.47
2023-03-29T00:27:48.508Z,101460.03
2023-03-29T00:30:16.753Z,101466.06
2023-03-29T00:32:44.375Z,101458.22
2023-03-29T00:35:12.307Z,101437.63
2023-03-29T00:37:41.365Z,101458.81
2023-03-29T00:40:11.741Z,101457.28
2023-03-29T00:42:39.430Z,101462.41
2023-03-29T00:45:20.419Z,101455.50
2023-03-29T00:47:52.045Z,101407.75
2023-03-29T00:50:33.178Z,101455.62
2023-03-29T00:53:06.735Z,101459.84
2023-03-29T00:55:43.649Z,101465.28
2023-03-29T00:58:15.055Z,101458.22
2023-03-29T01:00:52.382Z,101458.22
2023-03-29T01:03:24.880Z,101405.97
2023-03-29T01:06:00.334Z,101451.84
2023-03-29T01:08:34.801Z,101479.59
2023-03-29T01:11:08.649Z,101411.00
2023-03-29T01:13:52.997Z,101465.03
2023-03-29T01:16:22.077Z,101470.28
2023-03-29T01:18:50.237Z,101460.63
2023-03-29T01:21:29.343Z,101461.47
2023-03-29T01:24:06.701Z,101444.50
2023-03-29T01:26:44.016Z,101445.56
2023-03-29T01:29:20.499Z,101435.38
2023-03-29T01:31:54.898Z,101435.41
2023-03-29T01:34:28.098Z,101431.59
2023-03-29T01:37:24.718Z,101429.13
2023-03-29T01:39:53.069Z,101427.50
2023-03-29T01:42:42.318Z,101431.72
2023-03-29T01:45:21.837Z,101433.56
2023-03-29T01:48:01.904Z,101445.09
2023-03-29T01:50:54.311Z,101397.28
2023-03-29T01:53:46.926Z,101421.88
2023-03-29T01:56:19.580Z,101413.41
2023-03-29T01:58:54.981Z,101409.25
2023-03-29T02:01:28.362Z,101408.41
2023-03-29T02:04:03.134Z,101420.78
2023-03-29T02:06:36.089Z,101419.00
2023-03-29T02:09:05.048Z,101417.00
2023-03-29T02:11:35.355Z,101419.41
2023-03-29T02:14:03.509Z,101367.91
2023-03-29T02:16:39.123Z,101414.50
2023-03-29T02:19:09.859Z,101402.25
2023-03-29T02:21:51.811Z,101423.34
2023-03-29T02:24:21.522Z,101422.69
2023-03-29T02:26:49.653Z,101431.78
2023-03-29T02:29:17.605Z,101430.13
2023-03-29T02:31:53.263Z,101440.16
2023-03-29T02:34:26.843Z,101447.19
2023-03-29T02:37:18.850Z,101419.28
2023-03-29T02:39:50.306Z,101453.16
2023-03-29T02:42:20.463Z,101455.72
2023-03-29T02:44:51.161Z,101462.66
2023-03-29T02:47:32.102Z,101453.53
2023-03-29T02:50:00.571Z,101471.84
2023-03-29T02:52:35.797Z,101471.03
2023-03-29T02:55:08.599Z,101475.50
2023-03-29T02:57:38.389Z,101482.94
2023-03-29T03:00:10.546Z,101475.94
2023-03-29T03:02:38.714Z,101467.69
2023-03-29T03:05:07.226Z,101485.91
2023-03-29T03:07:34.931Z,101497.00
2023-03-29T03:10:03.994Z,101491.84
2023-03-29T03:12:32.014Z,101444.16
2023-03-29T03:14:59.653Z,101502.84
2023-03-29T03:17:27.454Z,101496.88
2023-03-29T03:19:55.054Z,101470.72
2023-03-29T03:22:22.769Z,101450.44
2023-03-29T03:24:50.555Z,101518.53
2023-03-29T03:27:18.258Z,101513.53
2023-03-29T03:29:45.895Z,101517.72
2023-03-29T03:32:16.291Z,101520.38
2023-03-29T03:34:45.818Z,101520.06
2023-03-29T03:37:13.303Z,101521.87
2023-03-29T03:39:41.611Z,101511.72
2023-03-29T03:42:09.331Z,101530.03
2023-03-29T03:44:39.515Z,101503.44
2023-03-29T03:47:07.898Z,101530.44
2023-03-29T03:49:36.118Z,101539.03
2023-03-29T03:52:03.774Z,101539.91
2023-03-29T03:54:32.076Z,101545.03
2023-03-29T03:57:02.416Z,101546.78
2023-03-29T03:59:30.098Z,101550.94
2023-03-29T04:01:59.929Z,101551.78
2023-03-29T04:04:28.039Z,101557.03
2023-03-29T04:07:02.575Z,101564.00
2023-03-29T04:09:31.980Z,101566.53
2023-03-29T04:12:01.550Z,101513.19
2023-03-29T04:14:31.714Z,101573.38
2023-03-29T04:17:00.191Z,101573.47
2023-03-29T04:19:28.800Z,101583.88
2023-03-29T04:21:56.368Z,101592.56
2023-03-29T04:24:25.061Z,101587.41
2023-03-29T04:26:56.002Z,101586.41
2023-03-29T04:29:23.818Z,101588.19
2023-03-29T04:31:52.055Z,101588.12
2023-03-29T04:34:19.811Z,101583.81
2023-03-29T04:36:50.252Z,101594.88
2023-03-29T04:39:18.133Z,101581.97
2023-03-29T04:41:47.292Z,101584.47
2023-03-29T04:44:16.223Z,101593.13
2023-03-29T04:46:43.804Z,101602.25
2023-03-29T04:49:11.799Z,101597.84
2023-03-29T04:51:39.782Z,101601.25
2023-03-29T04:54:07.678Z,101600.41
2023-03-29T04:56:35.917Z,101592.53
2023-03-29T04:59:07.213Z,101593.37
2023-03-29T05:01:35.175Z,101589.87
2023-03-29T05:04:03.418Z,101600.00
2023-03-29T05:06:31.828Z,101588.88
2023-03-29T05:08:59.291Z,101587.59
2023-03-29T05:11:27.693Z,101589.09
2023-03-29T05:13:57.286Z,101577.88
2023-03-29T05:16:26.443Z,101592.03
2023-03-29T05:18:55.423Z,101597.09
2023-03-29T05:21:24.083Z,101595.16
2023-03-29T05:23:52.349Z,101600.00
2023-03-29T05:26:23.443Z,101594.50
2023-03-29T05:28:51.939Z,101561.94
2023-03-29T05:31:20.348Z,101603.09
2023-03-29T05:33:49.380Z,101607.19
2023-03-29T05:36:19.287Z,101557.12
2023-03-29T05:38:47.216Z,101544.12
2023-03-29T05:41:16.024Z,101600.44
2023-03-29T05:43:45.817Z,101607.19
2023-03-29T05:46:13.722Z,101595.84
2023-03-29T05:48:42.851Z,101603.53
2023-03-29T05:51:16.554Z,101604.34
2023-03-29T05:53:55.741Z,101599.94
2023-03-29T05:56:27.742Z,101605.94
2023-03-29T05:58:58.781Z,101603.72
2023-03-29T06:01:26.738Z,101608.81
2023-03-29T06:03:56.425Z,101615.44
2023-03-29T06:06:24.435Z,101616.69
2023-03-29T06:08:52.401Z,101616.09
2023-03-29T06:11:22.286Z,101615.03
2023-03-29T06:13:51.868Z,101617.53
2023-03-29T06:16:19.906Z,101628.22
2023-03-29T06:18:47.994Z,101634.72
2023-03-29T06:21:15.911Z,101561.22
2023-03-29T06:23:43.836Z,101619.94
2023-03-29T06:26:12.836Z,101616.16
2023-03-29T06:28:41.862Z,101624.44
2023-03-29T06:31:10.352Z,101626.78
2023-03-29T06:33:38.867Z,101612.94
2023-03-29T06:36:07.574Z,101626.56
2023-03-29T06:38:35.354Z,101636.69
2023-03-29T06:41:06.050Z,101631.84
2023-03-29T06:43:34.902Z,101626.91
2023-03-29T06:46:11.645Z,101636.94
2023-03-29T06:48:40.977Z,101627.78
2023-03-29T06:51:08.925Z,101631.81
2023-03-29T06:53:36.746Z,101629.34
2023-03-29T06:56:09.378Z,101626.34
2023-03-29T06:58:38.166Z,101625.97
2023-03-29T07:01:07.147Z,101628.66
2023-03-29T07:03:39.219Z,101571.59
2023-03-29T07:06:10.184Z,101564.19
2023-03-29T07:08:46.992Z,101627.28
2023-03-29T07:11:15.645Z,101612.56
2023-03-29T07:13:44.619Z,101628.09
2023-03-29T07:16:13.813Z,101625.38
2023-03-29T07:18:44.311Z,101629.78
2023-03-29T07:21:14.782Z,101631.06
2023-03-29T07:23:42.669Z,101622.28
2023-03-29T07:26:12.084Z,101630.13
2023-03-29T07:28:40.849Z,101632.59
2023-03-29T07:31:11.376Z,101629.44
2023-03-29T07:33:40.137Z,101633.53
2023-03-29T07:36:08.850Z,101642.88
2023-03-29T07:38:37.908Z,101647.88
2023-03-29T07:41:08.222Z,101647.03
2023-03-29T07:43:36.550Z,101647.34
2023-03-29T07:46:05.495Z,101649.78
2023-03-29T07:48:33.890Z,101664.75
2023-03-29T07:51:03.839Z,101653.91
2023-03-29T07:53:32.334Z,101657.97
2023-03-29T07:56:01.747Z,101631.22
2023-03-29T07:58:31.552Z,101605.97
2023-03-29T08:01:02.608Z,101647.00
2023-03-29T08:03:36.202Z,101658.56
2023-03-29T08:06:06.343Z,101661.00
2023-03-29T08:08:34.684Z,101613.97
2023-03-29T08:11:02.915Z,101656.63
2023-03-29T08:13:30.946Z,101656.78
2023-03-29T08:16:02.044Z,101658.72
2023-03-29T08:18:31.122Z,101660.03
2023-03-29T08:21:00.467Z,101665.19
2023-03-29T08:23:28.139Z,101656.50
2023-03-29T08:25:58.177Z,101653.94
2023-03-29T08:28:26.715Z,101657.16
2023-03-29T08:30:54.826Z,101654.22
2023-03-29T08:33:22.565Z,101652.56
2023-03-29T08:35:50.817Z,101663.91
2023-03-29T08:38:19.099Z,101645.12
2023-03-29T08:40:48.843Z,101600.59
2023-03-29T08:43:53.368Z,101646.59
2023-03-29T08:46:52.548Z,101630.50
2023-03-29T08:49:22.644Z,101641.66
2023-03-29T08:51:57.884Z,101581.28
2023-03-29T08:54:29.230Z,101628.47
2023-03-29T08:57:10.982Z,101624.25
2023-03-29T08:59:41.619Z,101619.59
2023-03-29T09:02:17.970Z,101620.84
2023-03-29T09:04:48.983Z,101625.69
2023-03-29T09:07:17.771Z,101593.78
2023-03-29T09:09:46.471Z,101635.47
2023-03-29T09:12:17.174Z,101619.16
2023-03-29T09:15:09.501Z,101622.06
2023-03-29T09:17:56.628Z,101615.91
2023-03-29T09:20:43.659Z,101612.63
2023-03-29T09:23:23.418Z,101618.91
2023-03-29T09:26:25.344Z,101610.16
2023-03-29T09:29:13.208Z,101607.91
2023-03-29T09:31:44.841Z,101606.66
2023-03-29T09:34:17.678Z,101601.59
2023-03-29T09:36:56.841Z,101589.78
2023-03-29T09:39:27.331Z,101598.00
2023-03-29T09:42:08.057Z,101543.00
2023-03-29T09:44:41.484Z,101585.44
2023-03-29T09:47:19.926Z,101585.31
2023-03-29T09:49:52.309Z,101589.50
2023-03-29T09:52:21.055Z,101584.84
2023-03-29T09:54:49.599Z,101588.66
2023-03-29T09:57:20.237Z,101577.25
2023-03-29T09:59:50.601Z,101576.69
2023-03-29T10:02:21.151Z,101530.03
2023-03-29T10:05:01.025Z,101561.00
2023-03-29T10:07:39.924Z,101567.62
2023-03-29T10:10:10.576Z,101557.84
2023-03-29T10:12:38.108Z,101548.50
2023-03-29T10:15:09.927Z,101550.72
2023-03-29T10:17:40.637Z,101551.94
2023-03-29T10:20:16.898Z,101541.59
2023-03-29T10:22:54.410Z,101540.53
2023-03-29T10:25:27.262Z,101537.72
2023-03-29T10:28:02.977Z,101534.19
2023-03-29T10:30:35.064Z,101521.09
2023-03-29T10:33:04.097Z,101530.06
2023-03-29T10:35:44.426Z,101530.09
2023-03-29T10:38:24.502Z,101526.31
2023-03-29T10:40:53.364Z,101523.75
2023-03-29T10:43:29.544Z,101516.19
2023-03-29T10:46:08.114Z,101511.91
2023-03-29T10:48:36.860Z,101524.63
2023-03-29T10:51:06.081Z,101478.00
2023-03-29T10:53:36.173Z,101520.63
2023-03-29T10:56:12.104Z,101510.50
2023-03-29T10:59:09.336Z,101500.34
2023-03-29T11:02:02.363Z,101498.00
2023-03-29T11:04:52.777Z,101493.53
2023-03-29T11:07:29.617Z,101487.28
2023-03-29T11:09:57.555Z,101487.22
2023-03-29T11:12:34.175Z,101477.91
2023-03-29T11:15:29.470Z,101470.72
2023-03-29T11:18:16.201Z,101426.53
2023-03-29T11:21:10.718Z,101468.03
2023-03-29T11:23:54.540Z,101472.72
2023-03-29T11:26:30.729Z,101471.00
2023-03-29T11:29:22.874Z,101456.31
2023-03-29T11:32:11.398Z,101463.72
2023-03-29T11:34:57.858Z,101463.28
2023-03-29T11:37:41.127Z,101456.84
2023-03-29T11:40:46.527Z,101446.38
2023-03-29T11:43:30.407Z,101453.47
2023-03-29T11:46:37.854Z,101443.53
2023-03-29T11:49:21.487Z,101431.22
2023-03-29T11:52:06.131Z,101439.41
2023-03-29T11:54:41.160Z,101448.16
2023-03-29T11:57:22.004Z,101442.84
2023-03-29T12:00:01.855Z,101427.34
2023-03-29T12:02:50.754Z,101391.56
2023-03-29T12:05:21.888Z,101427.13
2023-03-29T12:07:59.219Z,101432.38
2023-03-29T12:10:36.608Z,101420.66
2023-03-29T12:13:10.534Z,101422.44
2023-03-29T12:15:43.157Z,101417.59
2023-03-29T12:18:33.078Z,101415.50
2023-03-29T12:21:12.356Z,101370.41
2023-03-29T12:23:43.542Z,101410.22
2023-03-29T12:26:23.483Z,101411.62
2023-03-29T12:29:29.835Z,101413.22
2023-03-29T12:32:26.460Z,101414.03
2023-03-29T12:35:13.117Z,101414.91
2023-03-29T12:38:02.658Z,101405.84
2023-03-29T12:40:46.467Z,101401.94
2023-03-29T12:43:23.948Z,101401.00
2023-03-29T12:46:01.349Z,101394.88
2023-03-29T12:48:30.345Z,101355.25
2023-03-29T12:51:03.598Z,101384.84
2023-03-29T12:53:37.086Z,101386.66
2023-03-29T12:56:08.456Z,101390.09
2023-03-29T12:58:39.435Z,101387.72
2023-03-29T13:01:23.886Z,101394.28
2023-03-29T13:04:01.433Z,101375.16
2023-03-29T13:06:50.519Z,101374.44
2023-03-29T13:09:21.957Z,101383.88
2023-03-29T13:11:59.716Z,101365.25
2023-03-29T13:14:31.883Z,101360.56
2023-03-29T13:17:18.155Z,101359.53
2023-03-29T13:20:09.306Z,101366.53
2023-03-29T13:22:58.349Z,101359.00
2023-03-29T13:26:11.804Z,101358.41
2023-03-29T13:28:45.531Z,101346.03
2023-03-29T13:31:44.224Z,101342.25
2023-03-29T13:34:21.186Z,101346.25
2023-03-29T13:37:13.037Z,101344.47
2023-03-29T13:39:50.731Z,101347.91
2023-03-29T13:42:20.307Z,101340.28
2023-03-29T13:44:51.717Z,101334.19
2023-03-29T13:47:19.401Z,101329.22
2023-03-29T13:49:56.901Z,101329.06
2023-03-29T13:52:30.617Z,101325.03
2023-03-29T13:55:17.650Z,101322.72
2023-03-29T13:58:21.030Z,101330.00
2023-03-29T14:01:00.559Z,101322.97
2023-03-29T14:03:32.536Z,101324.00
2023-03-29T14:06:03.197Z,101321.34
2023-03-29T14:08:36.761Z,101323.19
2023-03-29T14:14:08.554Z,101320.09
2023-03-29T14:16:39.190Z,101291.94
2023-03-29T14:19:13.495Z,101314.25
2023-03-29T14:21:42.916Z,101309.69
2023-03-29T14:24:13.187Z,101315.69
2023-03-29T14:26:46.078Z,101312.56
2023-03-29T14:29:14.533Z,101303.59
2023-03-29T14:31:43.009Z,101290.53
2023-03-29T14:34:16.711Z,101304.81
2023-03-29T14:36:46.737Z,101300.78
2023-03-29T14:39:14.360Z,101292.44
2023-03-29T14:41:48.556Z,101251.59
2023-03-29T14:44:16.649Z,101298.47
2023-03-29T14:46:46.849Z,101252.16
2023-03-29T14:49:20.656Z,101252.16
2023-03-29T14:51:50.464Z,101290.91
2023-03-29T14:54:29.922Z,101279.25
2023-03-29T14:56:58.179Z,101278.63
2023-03-29T14:59:34.990Z,101290.13
2023-03-29T15:02:03.539Z,101282.50
2023-03-29T15:04:35.736Z,101238.34
2023-03-29T15:07:05.010Z,101282.38
2023-03-29T15:09:34.543Z,101236.56
2023-03-29T15:12:03.619Z,101283.00
2023-03-29T15:14:33.933Z,101284.44
2023-03-29T15:17:07.177Z,101282.16
2023-03-29T15:19:36.422Z,101279.16
2023-03-29T15:22:11.299Z,101280.94
2023-03-29T15:24:47.572Z,101236.28
2023-03-29T15:27:18.911Z,101281.34
2023-03-29T15:29:47.410Z,101239.53
2023-03-29T15:32:23.405Z,101274.13
2023-03-29T15:35:03.494Z,101228.38
2023-03-29T15:37:31.467Z,101259.81
2023-03-29T15:39:59.724Z,101267.56
2023-03-29T15:42:27.380Z,101263.41
2023-03-29T15:44:56.471Z,101222.63
2023-03-29T15:47:24.379Z,101270.25
2023-03-29T15:49:52.044Z,101271.13
2023-03-29T15:52:19.577Z,101258.97
2023-03-29T15:54:47.307Z,101266.88
2023-03-29T15:57:18.526Z,101261.19
2023-03-29T15:59:46.415Z,101216.84
2023-03-29T16:02:20.234Z,101222.94
2023-03-29T16:04:48.105Z,101269.56
2023-03-29T16:07:18.107Z,101271.16
2023-03-29T16:09:48.728Z,101270.69
2023-03-29T16:12:16.955Z,101224.31
2023-03-29T16:14:45.106Z,101278.72
2023-03-29T16:17:12.706Z,101274.53
2023-03-29T16:19:40.650Z,101275.00
2023-03-29T16:22:08.417Z,101270.97
2023-03-29T16:24:36.460Z,101272.84
2023-03-29T16:27:04.470Z,101272.50
2023-03-29T16:29:32.305Z,101271.41
2023-03-29T16:32:00.142Z,101270.16
2023-03-29T16:34:33.564Z,101270.38
2023-03-29T16:37:04.482Z,101263.69
2023-03-29T16:39:32.284Z,101223.72
2023-03-29T16:41:59.891Z,101272.84
2023-03-29T16:44:28.023Z,101264.63
2023-03-29T16:46:58.417Z,101270.19
2023-03-29T16:49:26.099Z,101267.22
2023-03-29T16:51:53.712Z,101284.16
2023-03-29T16:54:21.568Z,101274.09
2023-03-29T16:56:49.068Z,101273.59
2023-03-29T16:59:16.662Z,101273.22
2023-03-29T17:01:44.853Z,101266.84
2023-03-29T17:04:12.320Z,101248.75
2023-03-29T17:06:39.936Z,101267.00
2023-03-29T17:09:08.224Z,101262.47
2023-03-29T17:11:36.144Z,101272.06
2023-03-29T17:14:03.872Z,101267.56
2023-03-29T17:16:31.784Z,101261.53
2023-03-29T17:19:02.373Z,101267.63
2023-03-29T17:21:29.974Z,101260.41
2023-03-29T17:23:57.907Z,101267.25
2023-03-29T17:26:26.086Z,101263.47
2023-03-29T17:28:53.668Z,101263.28
2023-03-29T17:31:21.931Z,101262.03
2023-03-29T17:33:52.205Z,101270.31
2023-03-29T17:36:23.983Z,101269.38
2023-03-29T17:38:51.944Z,101271.34
2023-03-29T17:41:20.296Z,101280.47
2023-03-29T17:43:48.083Z,101287.03
2023-03-29T17:46:16.859Z,101284.03
2023-03-29T17:48:46.130Z,101286.41
2023-03-29T17:51:14.082Z,101273.50
2023-03-29T17:53:42.265Z,101276.44
2023-03-29T17:56:10.107Z,101280.31
2023-03-29T17:58:37.656Z,101229.22
2023-03-29T18:01:13.133Z,101285.56
2023-03-29T18:03:41.791Z,101284.06
2023-03-29T18:06:09.310Z,101280.06
2023-03-29T18:08:37.582Z,101285.63
2023-03-29T18:11:11.606Z,101286.69
2023-03-29T18:13:39.964Z,101287.50
2023-03-29T18:16:08.999Z,101302.41
2023-03-29T18:18:37.445Z,101296.31
2023-03-29T18:21:06.933Z,101297.03
2023-03-29T18:23:35.684Z,101295.25
2023-03-29T18:26:04.493Z,101298.63
2023-03-29T18:28:32.519Z,101289.19
2023-03-29T18:31:00.995Z,101301.97
2023-03-29T18:33:30.300Z,101300.59
2023-03-29T18:35:58.021Z,101305.28
2023-03-29T18:38:27.171Z,101300.91
2023-03-29T18:40:55.120Z,101298.59
2023-03-29T18:43:23.153Z,101304.97
2023-03-29T18:45:51.363Z,101290.19
2023-03-29T18:48:19.113Z,101307.47
2023-03-29T18:50:47.031Z,101304.25
2023-03-29T18:53:15.941Z,101313.69
2023-03-29T18:55:44.248Z,101308.34
2023-03-29T18:58:13.386Z,101307.50
2023-03-29T19:00:42.421Z,101304.78
2023-03-29T19:03:10.472Z,101315.19
2023-03-29T19:05:39.295Z,101316.88
2023-03-29T19:08:08.567Z,101265.62
2023-03-29T19:10:38.622Z,101311.50
2023-03-29T19:13:06.529Z,101321.16
2023-03-29T19:15:34.970Z,101260.94
2023-03-29T19:18:02.788Z,101316.88
2023-03-29T19:20:30.969Z,101316.88
2023-03-29T19:22:58.980Z,101269.00
2023-03-29T19:25:26.723Z,101316.03
2023-03-29T19:27:54.983Z,101315.37
2023-03-29T19:30:23.449Z,101306.59
2023-03-29T19:32:52.160Z,101305.63
2023-03-29T19:35:20.429Z,101299.47
2023-03-29T19:37:48.265Z,101279.31
2023-03-29T19:40:16.105Z,101298.81
2023-03-29T19:42:43.712Z,101293.56
2023-03-29T19:45:12.371Z,101299.84
2023-03-29T19:47:42.304Z,101299.84
2023-03-29T19:50:12.325Z,101301.75
2023-03-29T19:52:41.166Z,101248.72
2023-03-29T19:55:08.812Z,101300.06
2023-03-29T19:57:37.169Z,101304.75
2023-03-29T20:00:08.130Z,101301.41
2023-03-29T20:02:41.731Z,101307.38
2023-03-29T20:05:09.840Z,101302.34
2023-03-29T20:07:37.284Z,101294.56
2023-03-29T20:10:05.695Z,101297.41
2023-03-29T20:12:33.461Z,101288.91
2023-03-29T20:15:01.102Z,101285.44
2023-03-29T20:17:29.076Z,101279.47
2023-03-29T20:19:57.534Z,101282.81
2023-03-29T20:22:26.418Z,101288.38
2023-03-29T20:24:54.134Z,101285.09
2023-03-29T20:27:22.524Z,101281.44
2023-03-29T20:29:50.680Z,101288.56
2023-03-29T20:32:18.307Z,101287.41
2023-03-29T20:34:46.214Z,101289.84
2023-03-29T20:37:14.645Z,101288.19
2023-03-29T20:39:42.258Z,101276.28
2023-03-29T20:42:11.254Z,101232.56
2023-03-29T20:44:39.213Z,101281.13
2023-03-29T20:47:08.156Z,101282.72
2023-03-29T20:49:39.569Z,101276.09
2023-03-29T20:52:18.155Z,101276.00
2023-03-29T20:54:45.883Z,101272.47
2023-03-29T20:57:16.228Z,101276.94
2023-03-29T20:59:44.440Z,101276.94
2023-03-29T21:02:19.026Z,101278.72
2023-03-29T21:04:51.941Z,101277.78
2023-03-29T21:07:21.494Z,101272.66
2023-03-29T21:09:50.078Z,101216.31
2023-03-29T21:12:17.815Z,101265.94
2023-03-29T21:14:47.422Z,101265.81
2023-03-29T21:17:15.323Z,101270.97
2023-03-29T21:19:42.729Z,101269.28
2023-03-29T21:22:13.780Z,101272.94
2023-03-29T21:24:41.406Z,101218.94
2023-03-29T21:27:09.116Z,101272.09
2023-03-29T21:29:36.846Z,101265.94
2023-03-29T21:32:04.644Z,101268.75
2023-03-29T21:34:32.167Z,101259.84
2023-03-29T21:36:59.860Z,101266.66
2023-03-29T21:39:27.427Z,101266.06
2023-03-29T21:41:55.085Z,101265.09
2023-03-29T21:44:22.855Z,101261.63
2023-03-29T21:46:50.453Z,101263.31
2023-03-29T21:49:18.342Z,101260.59
2023-03-29T21:51:46.517Z,101258.94
2023-03-29T21:54:14.070Z,101265.00
2023-03-29T21:56:41.656Z,101260.69
2023-03-29T21:59:09.418Z,101258.81
2023-03-29T22:01:37.114Z,101253.87
2023-03-29T22:04:05.100Z,101253.03
2023-03-29T22:06:32.620Z,101262.66
2023-03-29T22:09:00.840Z,101263.81
2023-03-29T22:11:28.696Z,101263.81
2023-03-29T22:13:56.726Z,101206.34
2023-03-29T22:16:25.869Z,101256.16
2023-03-29T22:18:54.365Z,101255.13
2023-03-29T22:21:24.921Z,101241.69
2023-03-29T22:23:55.474Z,101257.00
2023-03-29T22:26:27.581Z,101261.09
2023-03-29T22:28:56.199Z,101251.47
2023-03-29T22:31:25.332Z,101261.00
2023-03-29T22:33:53.790Z,101262.78
2023-03-29T22:36:29.924Z,101256.78
2023-03-29T22:38:58.057Z,101259.63
2023-03-29T22:41:27.645Z,101266.53
2023-03-29T22:43:57.934Z,101259.19
2023-03-29T22:46:26.349Z,101255.53
2023-03-29T22:48:53.971Z,101245.47
2023-03-29T22:51:21.770Z,101264.25
2023-03-29T22:53:49.766Z,101215.75
2023-03-29T22:56:17.668Z,101263.59
2023-03-29T22:58:45.798Z,101261.91
2023-03-29T23:01:13.631Z,101265.56
2023-03-29T23:03:41.695Z,101272.56
2023-03-29T23:06:09.266Z,101215.28
2023-03-29T23:08:37.188Z,101257.28
2023-03-29T23:11:05.122Z,101257.88
2023-03-29T23:13:33.573Z,101256.09
2023-03-29T23:16:03.657Z,101254.47
2023-03-29T23:18:34.794Z,101253.66
2023-03-29T23:21:05.602Z,101258.78
2023-03-29T23:23:33.948Z,101262.44
2023-03-29T23:26:02.499Z,101207.69
2023-03-29T23:28:31.397Z,101252.81
2023-03-29T23:31:03.056Z,101259.34
2023-03-29T23:33:35.196Z,101261.25
2023-03-29T23:36:04.867Z,101259.53
2023-03-29T23:38:34.584Z,101208.78
2023-03-29T23:41:04.892Z,101207.94
2023-03-29T23:43:35.431Z,101260.13
2023-03-29T23:46:09.751Z,101259.28
2023-03-29T23:48:38.619Z,101261.91
2023-03-29T23:51:08.060Z,101257.59
2023-03-29T23:53:35.737Z,101257.59
2023-03-29T23:56:05.094Z,101253.41
2023-03-29T23:58:35.168Z,101266.66
